Las Vegas, Nevada
Current Conditions -  °F | °C
As of 4:56 AM on Sunday 23 Nov 2014 (Local Time) from KLAS Reporting Station
Clear Clear  
Wind Chill: 56°   Ceiling: Unl
Heat Index: 56°   Visibility: 10mi
Dew Point: 17°   Wind: 23mph
Humidity: 22%   Direction: 330°NNW
Pressure: 30.11"   Gusts: 33mph
Location:  36.17°N, 115.13°W
Report Text: KLAS 231256Z 33020G29KT 10SM CLR 13/M08 A3011 RMK AO2 PK WND 33029/1241 PRESRR SLP184 T01331083 $
Loading
Personal Weather Stations






























Interactive Weather Map New forecast layout! Learn more

10-Day Weather Forecast

Advertisements
Track Severe Weather on mobile